sensor_id;sensor_type;location;lat;lon;timestamp;temperature;humidity
9772;DHT22;4925;52.588;13.370;2023-02-26T00:00:25;1.70;99.90
9772;DHT22;4925;52.588;13.370;2023-02-26T00:02:51;1.70;99.90
9772;DHT22;4925;52.588;13.370;2023-02-26T00:05:16;1.80;99.90
9772;DHT22;4925;52.588;13.370;2023-02-26T00:07:42;1.70;99.90
9772;DHT22;4925;52.588;13.370;2023-02-26T00:10:11;1.80;99.90
9772;DHT22;4925;52.588;13.370;2023-02-26T00:12:37;1.80;99.90
9772;DHT22;4925;52.588;13.370;2023-02-26T00:15:04;1.70;99.90
9772;DHT22;4925;52.588;13.370;2023-02-26T00:20:05;1.80;99.90
9772;DHT22;4925;52.588;13.370;2023-02-26T00:22:31;1.80;99.90
9772;DHT22;4925;52.588;13.370;2023-02-26T00:24:57;1.80;99.90
9772;DHT22;4925;52.588;13.370;2023-02-26T00:27:23;1.80;99.90
9772;DHT22;4925;52.588;13.370;2023-02-26T00:29:49;1.60;99.90
9772;DHT22;4925;52.588;13.370;2023-02-26T00:32:15;1.50;99.90
9772;DHT22;4925;52.588;13.370;2023-02-26T00:34:44;1.50;99.90
9772;DHT22;4925;52.588;13.370;2023-02-26T00:42:11;1.50;99.90
9772;DHT22;4925;52.588;13.370;2023-02-26T00:44:38;1.50;99.90
9772;DHT22;4925;52.588;13.370;2023-02-26T00:55:24;1.50;99.90
9772;DHT22;4925;52.588;13.370;2023-02-26T00:57:50;1.50;99.90
9772;DHT22;4925;52.588;13.370;2023-02-26T01:00:16;1.50;99.90
9772;DHT22;4925;52.588;13.370;2023-02-26T01:02:42;1.50;99.90
9772;DHT22;4925;52.588;13.370;2023-02-26T01:05:09;1.60;99.90
9772;DHT22;4925;52.588;13.370;2023-02-26T01:10:29;1.40;99.90
9772;DHT22;4925;52.588;13.370;2023-02-26T01:12:55;1.50;99.90
9772;DHT22;4925;52.588;13.370;2023-02-26T01:15:22;1.50;99.90
9772;DHT22;4925;52.588;13.370;2023-02-26T01:18:08;1.60;99.90
9772;DHT22;4925;52.588;13.370;2023-02-26T01:20:42;1.60;99.90
9772;DHT22;4925;52.588;13.370;2023-02-26T01:23:39;1.50;99.90
9772;DHT22;4925;52.588;13.370;2023-02-26T01:26:03;1.50;99.90
9772;DHT22;4925;52.588;13.370;2023-02-26T01:28:30;1.60;99.90
9772;DHT22;4925;52.588;13.370;2023-02-26T01:31:00;1.60;99.90
9772;DHT22;4925;52.588;13.370;2023-02-26T01:34:01;1.50;99.90
9772;DHT22;4925;52.588;13.370;2023-02-26T01:36:31;1.60;99.90
9772;DHT22;4925;52.588;13.370;2023-02-26T01:39:19;1.50;99.90
9772;DHT22;4925;52.588;13.370;2023-02-26T01:41:54;1.60;99.90
9772;DHT22;4925;52.588;13.370;2023-02-26T01:44:30;1.60;99.90
9772;DHT22;4925;52.588;13.370;2023-02-26T01:49:39;1.60;99.90
9772;DHT22;4925;52.588;13.370;2023-02-26T01:52:06;1.60;99.90
9772;DHT22;4925;52.588;13.370;2023-02-26T01:54:51;1.60;99.90
9772;DHT22;4925;52.588;13.370;2023-02-26T01:57:18;1.60;99.90
9772;DHT22;4925;52.588;13.370;2023-02-26T01:59:49;1.60;99.90
9772;DHT22;4925;52.588;13.370;2023-02-26T02:02:20;1.80;99.90
9772;DHT22;4925;52.588;13.370;2023-02-26T02:04:47;1.70;99.90
9772;DHT22;4925;52.588;13.370;2023-02-26T02:07:14;1.70;99.90
9772;DHT22;4925;52.588;13.370;2023-02-26T02:09:40;1.70;99.90
9772;DHT22;4925;52.588;13.370;2023-02-26T02:12:28;1.70;99.90
9772;DHT22;4925;52.588;13.370;2023-02-26T02:15:37;1.60;99.90
9772;DHT22;4925;52.588;13.370;2023-02-26T02:24:34;1.50;99.90
9772;DHT22;4925;52.588;13.370;2023-02-26T02:26:38;1.60;99.90
9772;DHT22;4925;52.588;13.370;2023-02-26T02:32:18;1.60;99.90
9772;DHT22;4925;52.588;13.370;2023-02-26T02:34:53;1.70;99.90
9772;DHT22;4925;52.588;13.370;2023-02-26T02:38:07;1.60;99.90
9772;DHT22;4925;52.588;13.370;2023-02-26T02:40:36;1.60;99.90
9772;DHT22;4925;52.588;13.370;2023-02-26T02:43:12;1.70;99.90
9772;DHT22;4925;52.588;13.370;2023-02-26T02:45:55;1.70;99.90
9772;DHT22;4925;52.588;13.370;2023-02-26T02:48:35;1.70;99.90
9772;DHT22;4925;52.588;13.370;2023-02-26T02:51:41;1.60;99.90
9772;DHT22;4925;52.588;13.370;2023-02-26T02:54:14;1.50;99.90
9772;DHT22;4925;52.588;13.370;2023-02-26T02:57:00;1.60;99.90
9772;DHT22;4925;52.588;13.370;2023-02-26T03:02:20;1.60;99.90
9772;DHT22;4925;52.588;13.370;2023-02-26T03:04:48;1.60;99.90
9772;DHT22;4925;52.588;13.370;2023-02-26T03:07:14;1.50;99.90
9772;DHT22;4925;52.588;13.370;2023-02-26T03:09:41;1.50;99.90
9772;DHT22;4925;52.588;13.370;2023-02-26T03:12:06;1.50;99.90
9772;DHT22;4925;52.588;13.370;2023-02-26T03:14:32;1.60;99.90
9772;DHT22;4925;52.588;13.370;2023-02-26T03:20:05;1.60;99.90
9772;DHT22;4925;52.588;13.370;2023-02-26T03:22:55;1.50;99.90
9772;DHT22;4925;52.588;13.370;2023-02-26T03:31:19;1.50;99.90
9772;DHT22;4925;52.588;13.370;2023-02-26T03:34:07;1.60;99.90
9772;DHT22;4925;52.588;13.370;2023-02-26T03:36:39;1.50;99.90
9772;DHT22;4925;52.588;13.370;2023-02-26T03:44:34;1.50;99.90
9772;DHT22;4925;52.588;13.370;2023-02-26T03:47:07;1.40;99.90
9772;DHT22;4925;52.588;13.370;2023-02-26T03:50:02;1.50;99.90
9772;DHT22;4925;52.588;13.370;2023-02-26T03:52:31;1.60;99.90
9772;DHT22;4925;52.588;13.370;2023-02-26T03:55:09;1.70;99.90
9772;DHT22;4925;52.588;13.370;2023-02-26T03:57:36;1.80;99.90
9772;DHT22;4925;52.588;13.370;2023-02-26T04:00:03;1.70;99.90
9772;DHT22;4925;52.588;13.370;2023-02-26T04:02:33;1.70;99.90
9772;DHT22;4925;52.588;13.370;2023-02-26T04:05:15;1.70;99.90
9772;DHT22;4925;52.588;13.370;2023-02-26T04:07:42;1.80;99.90
9772;DHT22;4925;52.588;13.370;2023-02-26T04:10:10;1.80;99.90
9772;DHT22;4925;52.588;13.370;2023-02-26T04:12:38;1.80;99.90
9772;DHT22;4925;52.588;13.370;2023-02-26T04:15:04;1.80;99.90
9772;DHT22;4925;52.588;13.370;2023-02-26T04:17:31;1.70;99.90
9772;DHT22;4925;52.588;13.370;2023-02-26T04:19:57;1.70;99.90
9772;DHT22;4925;52.588;13.370;2023-02-26T04:22:22;1.80;99.90
9772;DHT22;4925;52.588;13.370;2023-02-26T04:24:48;1.80;99.90
9772;DHT22;4925;52.588;13.370;2023-02-26T04:27:14;1.80;99.90
9772;DHT22;4925;52.588;13.370;2023-02-26T04:29:39;1.80;99.90
9772;DHT22;4925;52.588;13.370;2023-02-26T04:32:05;1.70;99.90
9772;DHT22;4925;52.588;13.370;2023-02-26T04:34:31;1.70;99.90
9772;DHT22;4925;52.588;13.370;2023-02-26T04:36:56;1.70;99.90
9772;DHT22;4925;52.588;13.370;2023-02-26T04:39:22;1.60;99.90
9772;DHT22;4925;52.588;13.370;2023-02-26T04:41:48;1.70;99.90
9772;DHT22;4925;52.588;13.370;2023-02-26T04:44:13;1.70;99.90
9772;DHT22;4925;52.588;13.370;2023-02-26T04:46:39;1.70;99.90
9772;DHT22;4925;52.588;13.370;2023-02-26T04:49:05;1.70;99.90
9772;DHT22;4925;52.588;13.370;2023-02-26T04:51:30;1.70;99.90
9772;DHT22;4925;52.588;13.370;2023-02-26T04:53:56;1.80;99.90
9772;DHT22;4925;52.588;13.370;2023-02-26T04:56:22;1.80;99.90
9772;DHT22;4925;52.588;13.370;2023-02-26T04:58:48;1.80;99.90
9772;DHT22;4925;52.588;13.370;2023-02-26T05:01:13;1.80;99.90
9772;DHT22;4925;52.588;13.370;2023-02-26T05:03:39;1.80;99.90
9772;DHT22;4925;52.588;13.370;2023-02-26T05:06:06;1.90;99.90
9772;DHT22;4925;52.588;13.370;2023-02-26T05:08:32;1.90;99.90
9772;DHT22;4925;52.588;13.370;2023-02-26T05:10:57;2.20;99.90
9772;DHT22;4925;52.588;13.370;2023-02-26T05:13:23;1.90;99.90
9772;DHT22;4925;52.588;13.370;2023-02-26T05:15:49;1.80;99.90
9772;DHT22;4925;52.588;13.370;2023-02-26T05:18:17;1.90;99.90
9772;DHT22;4925;52.588;13.370;2023-02-26T05:20:42;1.90;99.90
9772;DHT22;4925;52.588;13.370;2023-02-26T05:23:08;1.90;99.90
9772;DHT22;4925;52.588;13.370;2023-02-26T05:25:34;1.90;99.90
9772;DHT22;4925;52.588;13.370;2023-02-26T05:27:59;2.00;99.90
9772;DHT22;4925;52.588;13.370;2023-02-26T05:30:25;2.00;99.90
9772;DHT22;4925;52.588;13.370;2023-02-26T05:32:50;2.00;99.90
9772;DHT22;4925;52.588;13.370;2023-02-26T05:35:16;2.00;99.90
9772;DHT22;4925;52.588;13.370;2023-02-26T05:37:42;2.00;99.90
9772;DHT22;4925;52.588;13.370;2023-02-26T05:40:08;2.00;99.90
9772;DHT22;4925;52.588;13.370;2023-02-26T05:42:38;1.90;99.90
9772;DHT22;4925;52.588;13.370;2023-02-26T05:45:05;2.00;99.90
9772;DHT22;4925;52.588;13.370;2023-02-26T05:47:34;2.00;99.90
9772;DHT22;4925;52.588;13.370;2023-02-26T05:50:00;2.00;99.90
9772;DHT22;4925;52.588;13.370;2023-02-26T05:52:26;2.10;99.90
9772;DHT22;4925;52.588;13.370;2023-02-26T05:54:52;2.10;99.90
9772;DHT22;4925;52.588;13.370;2023-02-26T05:57:17;2.20;99.90
9772;DHT22;4925;52.588;13.370;2023-02-26T05:59:43;2.30;99.90
9772;DHT22;4925;52.588;13.370;2023-02-26T06:02:09;2.10;99.90
9772;DHT22;4925;52.588;13.370;2023-02-26T06:04:34;2.10;99.90
9772;DHT22;4925;52.588;13.370;2023-02-26T06:07:00;2.10;99.90
9772;DHT22;4925;52.588;13.370;2023-02-26T06:09:26;2.10;99.90
9772;DHT22;4925;52.588;13.370;2023-02-26T06:11:52;2.10;99.90
9772;DHT22;4925;52.588;13.370;2023-02-26T06:14:18;2.10;99.90
9772;DHT22;4925;52.588;13.370;2023-02-26T06:16:43;2.20;99.90
9772;DHT22;4925;52.588;13.370;2023-02-26T06:19:09;2.30;99.90
9772;DHT22;4925;52.588;13.370;2023-02-26T06:21:35;2.20;99.90
9772;DHT22;4925;52.588;13.370;2023-02-26T06:24:00;2.20;99.90
9772;DHT22;4925;52.588;13.370;2023-02-26T06:26:26;2.20;99.90
9772;DHT22;4925;52.588;13.370;2023-02-26T06:28:52;2.20;98.30
9772;DHT22;4925;52.588;13.370;2023-02-26T06:31:18;2.20;99.50
9772;DHT22;4925;52.588;13.370;2023-02-26T06:33:43;2.20;99.90
9772;DHT22;4925;52.588;13.370;2023-02-26T06:36:09;2.10;99.90
9772;DHT22;4925;52.588;13.370;2023-02-26T06:38:35;2.20;96.50
9772;DHT22;4925;52.588;13.370;2023-02-26T06:41:00;2.20;96.10
9772;DHT22;4925;52.588;13.370;2023-02-26T06:43:26;2.30;98.90
9772;DHT22;4925;52.588;13.370;2023-02-26T06:45:52;2.20;99.60
9772;DHT22;4925;52.588;13.370;2023-02-26T06:48:17;2.30;99.90
9772;DHT22;4925;52.588;13.370;2023-02-26T06:50:43;2.30;98.10
9772;DHT22;4925;52.588;13.370;2023-02-26T06:53:09;2.10;91.30
9772;DHT22;4925;52.588;13.370;2023-02-26T06:55:35;2.20;95.90
9772;DHT22;4925;52.588;13.370;2023-02-26T06:58:01;2.20;96.90
9772;DHT22;4925;52.588;13.370;2023-02-26T07:00:26;2.20;96.30
9772;DHT22;4925;52.588;13.370;2023-02-26T07:02:52;2.20;96.20
9772;DHT22;4925;52.588;13.370;2023-02-26T07:05:18;2.10;97.40
9772;DHT22;4925;52.588;13.370;2023-02-26T07:07:44;2.10;95.00
9772;DHT22;4925;52.588;13.370;2023-02-26T07:10:10;2.20;95.50
9772;DHT22;4925;52.588;13.370;2023-02-26T07:12:36;2.20;96.50
9772;DHT22;4925;52.588;13.370;2023-02-26T07:15:06;2.30;96.60
9772;DHT22;4925;52.588;13.370;2023-02-26T07:17:32;2.40;99.90
9772;DHT22;4925;52.588;13.370;2023-02-26T07:19:57;2.60;94.50
9772;DHT22;4925;52.588;13.370;2023-02-26T07:22:23;2.40;89.40
9772;DHT22;4925;52.588;13.370;2023-02-26T07:24:49;2.40;90.60
9772;DHT22;4925;52.588;13.370;2023-02-26T07:27:15;2.40;88.40
9772;DHT22;4925;52.588;13.370;2023-02-26T07:29:41;2.30;90.10
9772;DHT22;4925;52.588;13.370;2023-02-26T07:32:07;2.20;88.70
9772;DHT22;4925;52.588;13.370;2023-02-26T07:34:33;2.30;91.10
9772;DHT22;4925;52.588;13.370;2023-02-26T07:36:58;2.30;96.40
9772;DHT22;4925;52.588;13.370;2023-02-26T07:39:25;2.40;99.70
9772;DHT22;4925;52.588;13.370;2023-02-26T07:41:51;2.30;92.00
9772;DHT22;4925;52.588;13.370;2023-02-26T07:44:17;2.60;90.70
9772;DHT22;4925;52.588;13.370;2023-02-26T07:46:43;2.50;90.60
9772;DHT22;4925;52.588;13.370;2023-02-26T07:49:09;2.50;91.40
9772;DHT22;4925;52.588;13.370;2023-02-26T07:51:35;2.50;85.00
9772;DHT22;4925;52.588;13.370;2023-02-26T07:54:01;2.60;87.80
9772;DHT22;4925;52.588;13.370;2023-02-26T07:56:27;2.50;74.60
9772;DHT22;4925;52.588;13.370;2023-02-26T07:58:53;2.60;70.20
9772;DHT22;4925;52.588;13.370;2023-02-26T08:01:19;2.60;81.50
9772;DHT22;4925;52.588;13.370;2023-02-26T08:03:44;2.70;61.00
9772;DHT22;4925;52.588;13.370;2023-02-26T08:06:11;2.80;54.30
9772;DHT22;4925;52.588;13.370;2023-02-26T08:08:36;2.70;60.10
9772;DHT22;4925;52.588;13.370;2023-02-26T08:11:02;2.70;48.50
9772;DHT22;4925;52.588;13.370;2023-02-26T08:13:28;2.70;59.90
9772;DHT22;4925;52.588;13.370;2023-02-26T08:15:53;2.60;68.90
9772;DHT22;4925;52.588;13.370;2023-02-26T08:18:19;2.70;62.10
9772;DHT22;4925;52.588;13.370;2023-02-26T08:20:45;2.70;14.10
9772;DHT22;4925;52.588;13.370;2023-02-26T08:23:11;2.70;1.00
9772;DHT22;4925;52.588;13.370;2023-02-26T08:25:37;3.20;1.00
9772;DHT22;4925;52.588;13.370;2023-02-26T08:28:03;2.90;1.00
9772;DHT22;4925;52.588;13.370;2023-02-26T08:30:29;2.80;1.00
9772;DHT22;4925;52.588;13.370;2023-02-26T08:32:55;2.70;1.00
9772;DHT22;4925;52.588;13.370;2023-02-26T08:35:20;2.80;1.00
9772;DHT22;4925;52.588;13.370;2023-02-26T08:37:46;2.90;1.00
9772;DHT22;4925;52.588;13.370;2023-02-26T08:40:12;2.90;1.00
9772;DHT22;4925;52.588;13.370;2023-02-26T08:42:38;3.00;1.00
9772;DHT22;4925;52.588;13.370;2023-02-26T08:45:04;3.00;1.00
9772;DHT22;4925;52.588;13.370;2023-02-26T08:47:30;3.00;1.00
9772;DHT22;4925;52.588;13.370;2023-02-26T08:49:56;3.10;1.00
9772;DHT22;4925;52.588;13.370;2023-02-26T08:52:23;3.10;1.00
9772;DHT22;4925;52.588;13.370;2023-02-26T08:54:49;3.10;1.00
9772;DHT22;4925;52.588;13.370;2023-02-26T08:57:14;3.20;1.00
9772;DHT22;4925;52.588;13.370;2023-02-26T08:59:40;3.30;1.00
9772;DHT22;4925;52.588;13.370;2023-02-26T09:02:06;3.30;99.90
9772;DHT22;4925;52.588;13.370;2023-02-26T09:04:32;3.40;99.90
9772;DHT22;4925;52.588;13.370;2023-02-26T09:06:58;3.30;99.90
9772;DHT22;4925;52.588;13.370;2023-02-26T09:09:23;3.50;99.90
9772;DHT22;4925;52.588;13.370;2023-02-26T09:11:49;3.50;99.90
9772;DHT22;4925;52.588;13.370;2023-02-26T09:14:14;3.40;99.90
9772;DHT22;4925;52.588;13.370;2023-02-26T09:16:40;3.50;99.90
9772;DHT22;4925;52.588;13.370;2023-02-26T09:19:06;3.50;99.90
9772;DHT22;4925;52.588;13.370;2023-02-26T09:21:32;3.50;1.00
9772;DHT22;4925;52.588;13.370;2023-02-26T09:23:58;3.50;48.60
9772;DHT22;4925;52.588;13.370;2023-02-26T09:26:24;3.60;99.90
9772;DHT22;4925;52.588;13.370;2023-02-26T09:28:49;3.70;1.00
9772;DHT22;4925;52.588;13.370;2023-02-26T09:31:15;3.70;1.00
9772;DHT22;4925;52.588;13.370;2023-02-26T09:33:41;3.70;1.00
9772;DHT22;4925;52.588;13.370;2023-02-26T09:36:07;3.70;1.00
9772;DHT22;4925;52.588;13.370;2023-02-26T09:38:33;3.80;1.00
9772;DHT22;4925;52.588;13.370;2023-02-26T09:41:06;3.90;1.00
9772;DHT22;4925;52.588;13.370;2023-02-26T09:51:57;4.20;99.90
9772;DHT22;4925;52.588;13.370;2023-02-26T09:54:29;4.30;1.00
9772;DHT22;4925;52.588;13.370;2023-02-26T09:56:58;4.30;99.90
9772;DHT22;4925;52.588;13.370;2023-02-26T09:59:26;4.40;99.90
9772;DHT22;4925;52.588;13.370;2023-02-26T10:07:25;4.30;1.00
9772;DHT22;4925;52.588;13.370;2023-02-26T10:10:32;4.40;54.70
9772;DHT22;4925;52.588;13.370;2023-02-26T10:12:59;4.20;99.90
9772;DHT22;4925;52.588;13.370;2023-02-26T10:15:34;4.20;70.70
9772;DHT22;4925;52.588;13.370;2023-02-26T10:31:11;4.20;1.00
9772;DHT22;4925;52.588;13.370;2023-02-26T10:39:52;4.20;99.90
9772;DHT22;4925;52.588;13.370;2023-02-26T10:42:32;4.40;99.90
9772;DHT22;4925;52.588;13.370;2023-02-26T10:45:16;4.40;99.90
9772;DHT22;4925;52.588;13.370;2023-02-26T10:50:26;4.30;1.00
9772;DHT22;4925;52.588;13.370;2023-02-26T10:52:53;4.30;99.90
9772;DHT22;4925;52.588;13.370;2023-02-26T10:55:37;4.30;99.90
9772;DHT22;4925;52.588;13.370;2023-02-26T10:58:16;4.40;99.90
9772;DHT22;4925;52.588;13.370;2023-02-26T11:00:46;4.40;99.90
9772;DHT22;4925;52.588;13.370;2023-02-26T11:03:29;4.30;99.90
9772;DHT22;4925;52.588;13.370;2023-02-26T11:05:55;4.40;1.00
9772;DHT22;4925;52.588;13.370;2023-02-26T11:08:35;4.60;1.00
9772;DHT22;4925;52.588;13.370;2023-02-26T11:11:04;4.60;1.00
9772;DHT22;4925;52.588;13.370;2023-02-26T11:13:33;4.60;1.00
9772;DHT22;4925;52.588;13.370;2023-02-26T11:16:10;4.60;7.70
9772;DHT22;4925;52.588;13.370;2023-02-26T11:18:45;4.70;99.90
9772;DHT22;4925;52.588;13.370;2023-02-26T11:21:22;4.70;1.00
9772;DHT22;4925;52.588;13.370;2023-02-26T11:23:51;4.80;1.00
9772;DHT22;4925;52.588;13.370;2023-02-26T11:26:18;4.90;1.00
9772;DHT22;4925;52.588;13.370;2023-02-26T11:28:53;4.90;1.00
9772;DHT22;4925;52.588;13.370;2023-02-26T11:31:22;4.90;99.90
9772;DHT22;4925;52.588;13.370;2023-02-26T11:33:50;4.90;58.70
9772;DHT22;4925;52.588;13.370;2023-02-26T11:36:20;4.90;1.00
9772;DHT22;4925;52.588;13.370;2023-02-26T11:38:53;5.00;36.30
9772;DHT22;4925;52.588;13.370;2023-02-26T11:41:19;5.30;99.90
9772;DHT22;4925;52.588;13.370;2023-02-26T11:43:57;5.40;56.50
9772;DHT22;4925;52.588;13.370;2023-02-26T11:46:24;5.50;99.90
9772;DHT22;4925;52.588;13.370;2023-02-26T11:48:52;5.40;99.90
9772;DHT22;4925;52.588;13.370;2023-02-26T11:51:23;5.40;99.90
9772;DHT22;4925;52.588;13.370;2023-02-26T11:53:57;5.30;99.90
9772;DHT22;4925;52.588;13.370;2023-02-26T11:56:36;5.20;99.90
9772;DHT22;4925;52.588;13.370;2023-02-26T11:59:22;5.10;99.90
9772;DHT22;4925;52.588;13.370;2023-02-26T12:01:49;5.20;99.90
9772;DHT22;4925;52.588;13.370;2023-02-26T12:04:24;5.20;99.90
9772;DHT22;4925;52.588;13.370;2023-02-26T12:06:52;5.40;99.90
9772;DHT22;4925;52.588;13.370;2023-02-26T12:09:19;5.60;99.90
9772;DHT22;4925;52.588;13.370;2023-02-26T12:23:20;6.00;99.90
9772;DHT22;4925;52.588;13.370;2023-02-26T12:31:28;5.80;99.90
9772;DHT22;4925;52.588;13.370;2023-02-26T12:36:47;5.70;99.90
9772;DHT22;4925;52.588;13.370;2023-02-26T12:44:45;6.10;99.90
9772;DHT22;4925;52.588;13.370;2023-02-26T12:53:01;7.10;99.90
9772;DHT22;4925;52.588;13.370;2023-02-26T13:04:34;6.60;99.90
9772;DHT22;4925;52.588;13.370;2023-02-26T13:07:17;6.40;1.00
9772;DHT22;4925;52.588;13.370;2023-02-26T13:17:50;6.10;99.90
9772;DHT22;4925;52.588;13.370;2023-02-26T13:20:23;6.40;1.00
9772;DHT22;4925;52.588;13.370;2023-02-26T13:27:58;7.00;99.90
9772;DHT22;4925;52.588;13.370;2023-02-26T13:30:38;6.90;1.00
9772;DHT22;4925;52.588;13.370;2023-02-26T13:33:16;7.00;1.00
9772;DHT22;4925;52.588;13.370;2023-02-26T13:35:44;7.40;1.00
9772;DHT22;4925;52.588;13.370;2023-02-26T13:38:43;7.50;1.00
9772;DHT22;4925;52.588;13.370;2023-02-26T13:41:15;7.70;1.00
9772;DHT22;4925;52.588;13.370;2023-02-26T13:46:41;7.70;1.00
9772;DHT22;4925;52.588;13.370;2023-02-26T13:49:30;7.80;1.00
9772;DHT22;4925;52.588;13.370;2023-02-26T13:51:59;7.90;1.00
9772;DHT22;4925;52.588;13.370;2023-02-26T13:54:43;8.10;1.00
9772;DHT22;4925;52.588;13.370;2023-02-26T14:00:06;7.70;1.00
9772;DHT22;4925;52.588;13.370;2023-02-26T14:02:49;7.70;1.00
9772;DHT22;4925;52.588;13.370;2023-02-26T14:13:19;8.10;1.00
9772;DHT22;4925;52.588;13.370;2023-02-26T14:16:10;8.10;1.00
9772;DHT22;4925;52.588;13.370;2023-02-26T14:18:47;8.00;1.00
9772;DHT22;4925;52.588;13.370;2023-02-26T14:24:14;7.90;1.00
9772;DHT22;4925;52.588;13.370;2023-02-26T14:26:48;7.80;1.00
9772;DHT22;4925;52.588;13.370;2023-02-26T14:29:25;7.60;1.00
9772;DHT22;4925;52.588;13.370;2023-02-26T14:34:48;7.10;1.00
9772;DHT22;4925;52.588;13.370;2023-02-26T14:37:18;6.80;1.00
9772;DHT22;4925;52.588;13.370;2023-02-26T14:40:01;6.70;1.00
9772;DHT22;4925;52.588;13.370;2023-02-26T14:42:39;6.50;1.00
9772;DHT22;4925;52.588;13.370;2023-02-26T14:47:41;6.40;1.00
9772;DHT22;4925;52.588;13.370;2023-02-26T14:50:08;6.50;1.00
9772;DHT22;4925;52.588;13.370;2023-02-26T14:53:23;6.80;1.00
9772;DHT22;4925;52.588;13.370;2023-02-26T14:55:40;7.00;99.90
9772;DHT22;4925;52.588;13.370;2023-02-26T14:58:25;7.30;99.90
9772;DHT22;4925;52.588;13.370;2023-02-26T15:17:18;8.90;1.00
9772;DHT22;4925;52.588;13.370;2023-02-26T15:24:47;9.10;1.00
9772;DHT22;4925;52.588;13.370;2023-02-26T15:27:16;9.00;1.50
9772;DHT22;4925;52.588;13.370;2023-02-26T15:29:42;9.00;4.80
9772;DHT22;4925;52.588;13.370;2023-02-26T15:32:24;8.90;5.30
9772;DHT22;4925;52.588;13.370;2023-02-26T15:35:16;8.70;1.70
9772;DHT22;4925;52.588;13.370;2023-02-26T15:37:42;8.30;1.00
9772;DHT22;4925;52.588;13.370;2023-02-26T15:40:08;8.10;1.00
9772;DHT22;4925;52.588;13.370;2023-02-26T15:42:37;7.80;1.00
9772;DHT22;4925;52.588;13.370;2023-02-26T15:45:08;7.60;1.00
9772;DHT22;4925;52.588;13.370;2023-02-26T15:47:36;7.40;1.00
9772;DHT22;4925;52.588;13.370;2023-02-26T15:50:03;7.30;1.00
9772;DHT22;4925;52.588;13.370;2023-02-26T15:52:29;7.00;1.00
9772;DHT22;4925;52.588;13.370;2023-02-26T15:54:57;6.70;1.00
9772;DHT22;4925;52.588;13.370;2023-02-26T15:57:25;6.70;1.00
9772;DHT22;4925;52.588;13.370;2023-02-26T15:59:53;6.60;1.00
9772;DHT22;4925;52.588;13.370;2023-02-26T16:02:21;6.40;1.00
9772;DHT22;4925;52.588;13.370;2023-02-26T16:04:49;6.30;1.00
9772;DHT22;4925;52.588;13.370;2023-02-26T16:07:18;6.20;1.00
9772;DHT22;4925;52.588;13.370;2023-02-26T16:09:52;6.00;99.90
9772;DHT22;4925;52.588;13.370;2023-02-26T16:12:23;6.00;99.90
9772;DHT22;4925;52.588;13.370;2023-02-26T16:14:55;5.80;58.40
9772;DHT22;4925;52.588;13.370;2023-02-26T16:17:29;5.80;99.90
9772;DHT22;4925;52.588;13.370;2023-02-26T16:19:58;5.70;99.90
9772;DHT22;4925;52.588;13.370;2023-02-26T16:22:29;5.60;99.90
9772;DHT22;4925;52.588;13.370;2023-02-26T16:25:04;5.50;99.90
9772;DHT22;4925;52.588;13.370;2023-02-26T16:27:31;5.40;1.00
9772;DHT22;4925;52.588;13.370;2023-02-26T16:30:01;5.20;1.00
9772;DHT22;4925;52.588;13.370;2023-02-26T16:32:30;5.20;1.00
9772;DHT22;4925;52.588;13.370;2023-02-26T16:35:01;5.20;99.90
9772;DHT22;4925;52.588;13.370;2023-02-26T16:37:34;5.10;99.90
9772;DHT22;4925;52.588;13.370;2023-02-26T16:47:48;4.80;99.90
9772;DHT22;4925;52.588;13.370;2023-02-26T16:50:20;4.90;99.90
9772;DHT22;4925;52.588;13.370;2023-02-26T16:53:00;4.80;99.90
9772;DHT22;4925;52.588;13.370;2023-02-26T16:55:34;4.70;99.90
9772;DHT22;4925;52.588;13.370;2023-02-26T16:58:01;4.70;99.90
9772;DHT22;4925;52.588;13.370;2023-02-26T17:00:28;4.70;99.90
9772;DHT22;4925;52.588;13.370;2023-02-26T17:03:10;4.70;99.90
9772;DHT22;4925;52.588;13.370;2023-02-26T17:05:38;4.70;99.90
9772;DHT22;4925;52.588;13.370;2023-02-26T17:08:13;4.70;99.90
9772;DHT22;4925;52.588;13.370;2023-02-26T17:10:47;4.70;99.90
9772;DHT22;4925;52.588;13.370;2023-02-26T17:13:25;4.60;99.90
9772;DHT22;4925;52.588;13.370;2023-02-26T17:15:52;4.50;99.90
9772;DHT22;4925;52.588;13.370;2023-02-26T17:18:21;4.50;99.90
9772;DHT22;4925;52.588;13.370;2023-02-26T17:20:47;4.50;1.00
9772;DHT22;4925;52.588;13.370;2023-02-26T17:23:15;4.40;1.00
9772;DHT22;4925;52.588;13.370;2023-02-26T17:25:46;4.40;99.90
9772;DHT22;4925;52.588;13.370;2023-02-26T17:28:22;4.40;99.90
9772;DHT22;4925;52.588;13.370;2023-02-26T17:30:48;4.30;99.90
9772;DHT22;4925;52.588;13.370;2023-02-26T17:33:15;4.20;1.00
9772;DHT22;4925;52.588;13.370;2023-02-26T17:35:43;4.10;1.00
9772;DHT22;4925;52.588;13.370;2023-02-26T17:38:13;4.00;1.00
9772;DHT22;4925;52.588;13.370;2023-02-26T17:40:42;4.10;1.00
9772;DHT22;4925;52.588;13.370;2023-02-26T17:43:08;4.10;1.00
9772;DHT22;4925;52.588;13.370;2023-02-26T17:45:35;4.00;1.00
9772;DHT22;4925;52.588;13.370;2023-02-26T17:48:02;4.00;1.00
9772;DHT22;4925;52.588;13.370;2023-02-26T17:50:51;4.00;18.80
9772;DHT22;4925;52.588;13.370;2023-02-26T17:53:19;3.90;80.80
9772;DHT22;4925;52.588;13.370;2023-02-26T17:55:47;3.90;1.00
9772;DHT22;4925;52.588;13.370;2023-02-26T17:58:21;3.80;28.40
9772;DHT22;4925;52.588;13.370;2023-02-26T18:00:48;3.80;99.90
9772;DHT22;4925;52.588;13.370;2023-02-26T18:03:18;3.70;99.90
9772;DHT22;4925;52.588;13.370;2023-02-26T18:05:45;3.70;1.00
9772;DHT22;4925;52.588;13.370;2023-02-26T18:08:22;3.60;99.90
9772;DHT22;4925;52.588;13.370;2023-02-26T18:10:49;3.60;99.90
9772;DHT22;4925;52.588;13.370;2023-02-26T18:13:16;3.50;99.90
9772;DHT22;4925;52.588;13.370;2023-02-26T18:15:42;3.40;99.90
9772;DHT22;4925;52.588;13.370;2023-02-26T18:18:11;3.50;1.00
9772;DHT22;4925;52.588;13.370;2023-02-26T18:20:38;3.40;99.90
9772;DHT22;4925;52.588;13.370;2023-02-26T18:23:04;3.40;1.00
9772;DHT22;4925;52.588;13.370;2023-02-26T18:25:34;3.40;99.90
9772;DHT22;4925;52.588;13.370;2023-02-26T18:28:02;3.40;99.90
9772;DHT22;4925;52.588;13.370;2023-02-26T18:30:32;3.40;1.00
9772;DHT22;4925;52.588;13.370;2023-02-26T18:32:58;3.50;1.00
9772;DHT22;4925;52.588;13.370;2023-02-26T18:35:27;3.30;99.90
9772;DHT22;4925;52.588;13.370;2023-02-26T18:37:55;3.30;1.00
9772;DHT22;4925;52.588;13.370;2023-02-26T18:40:24;3.40;99.90
9772;DHT22;4925;52.588;13.370;2023-02-26T18:42:51;3.30;99.90
9772;DHT22;4925;52.588;13.370;2023-02-26T18:45:17;3.30;99.90
9772;DHT22;4925;52.588;13.370;2023-02-26T18:47:45;3.20;99.90
9772;DHT22;4925;52.588;13.370;2023-02-26T18:50:16;3.20;99.90
9772;DHT22;4925;52.588;13.370;2023-02-26T18:52:42;3.20;1.00
9772;DHT22;4925;52.588;13.370;2023-02-26T18:55:10;3.20;99.90
9772;DHT22;4925;52.588;13.370;2023-02-26T18:57:36;3.20;99.90
9772;DHT22;4925;52.588;13.370;2023-02-26T19:00:04;3.20;99.90
9772;DHT22;4925;52.588;13.370;2023-02-26T19:02:32;3.20;99.90
9772;DHT22;4925;52.588;13.370;2023-02-26T19:04:58;3.20;1.00
9772;DHT22;4925;52.588;13.370;2023-02-26T19:07:24;3.20;1.00
9772;DHT22;4925;52.588;13.370;2023-02-26T19:09:50;3.20;1.00
9772;DHT22;4925;52.588;13.370;2023-02-26T19:12:16;3.20;1.00
9772;DHT22;4925;52.588;13.370;2023-02-26T19:14:45;3.30;99.90
9772;DHT22;4925;52.588;13.370;2023-02-26T19:17:11;3.20;99.90
9772;DHT22;4925;52.588;13.370;2023-02-26T19:19:37;3.10;99.90
9772;DHT22;4925;52.588;13.370;2023-02-26T19:22:05;3.10;1.00
9772;DHT22;4925;52.588;13.370;2023-02-26T19:24:31;3.10;1.00
9772;DHT22;4925;52.588;13.370;2023-02-26T19:26:56;3.10;1.00
9772;DHT22;4925;52.588;13.370;2023-02-26T19:29:22;2.90;1.00
9772;DHT22;4925;52.588;13.370;2023-02-26T19:31:48;2.90;1.00